sensor_id;sensor_type;location;lat;lon;timestamp;P1;durP1;ratioP1;P2;durP2;ratioP2
24713;SDS011;12820;51.580;5.010;2023-02-26T00:01:14;16.98;;;4.65;;
24713;SDS011;12820;51.580;5.010;2023-02-26T00:06:18;13.40;;;4.32;;
24713;SDS011;12820;51.580;5.010;2023-02-26T00:11:21;18.83;;;4.60;;
24713;SDS011;12820;51.580;5.010;2023-02-26T00:21:36;11.85;;;4.00;;
24713;SDS011;12820;51.580;5.010;2023-02-26T00:26:38;17.73;;;4.43;;
24713;SDS011;12820;51.580;5.010;2023-02-26T00:31:40;17.40;;;4.75;;
24713;SDS011;12820;51.580;5.010;2023-02-26T00:41:49;12.00;;;3.92;;
24713;SDS011;12820;51.580;5.010;2023-02-26T00:52:12;17.63;;;4.38;;
24713;SDS011;12820;51.580;5.010;2023-02-26T01:02:22;10.93;;;3.65;;
24713;SDS011;12820;51.580;5.010;2023-02-26T01:07:24;10.65;;;3.47;;
24713;SDS011;12820;51.580;5.010;2023-02-26T01:12:28;13.52;;;3.50;;
24713;SDS011;12820;51.580;5.010;2023-02-26T01:17:46;17.45;;;4.13;;
24713;SDS011;12820;51.580;5.010;2023-02-26T01:23:06;12.90;;;3.33;;
24713;SDS011;12820;51.580;5.010;2023-02-26T01:28:12;9.70;;;3.60;;
24713;SDS011;12820;51.580;5.010;2023-02-26T01:33:18;9.32;;;3.63;;
24713;SDS011;12820;51.580;5.010;2023-02-26T01:48:55;10.65;;;3.85;;
24713;SDS011;12820;51.580;5.010;2023-02-26T01:53:58;14.77;;;3.53;;
24713;SDS011;12820;51.580;5.010;2023-02-26T01:59:02;10.68;;;3.35;;
24713;SDS011;12820;51.580;5.010;2023-02-26T02:04:08;14.25;;;3.85;;
24713;SDS011;12820;51.580;5.010;2023-02-26T02:09:13;13.02;;;3.05;;
24713;SDS011;12820;51.580;5.010;2023-02-26T02:30:19;9.32;;;2.40;;
24713;SDS011;12820;51.580;5.010;2023-02-26T02:35:39;9.63;;;2.53;;
24713;SDS011;12820;51.580;5.010;2023-02-26T02:40:49;11.35;;;2.00;;
24713;SDS011;12820;51.580;5.010;2023-02-26T02:46:02;4.20;;;1.35;;
24713;SDS011;12820;51.580;5.010;2023-02-26T02:51:36;8.75;;;2.00;;
24713;SDS011;12820;51.580;5.010;2023-02-26T03:02:05;10.65;;;1.67;;
24713;SDS011;12820;51.580;5.010;2023-02-26T03:07:12;8.10;;;1.73;;
24713;SDS011;12820;51.580;5.010;2023-02-26T03:12:14;7.43;;;1.55;;
24713;SDS011;12820;51.580;5.010;2023-02-26T03:23:04;9.80;;;1.50;;
24713;SDS011;12820;51.580;5.010;2023-02-26T03:33:53;14.27;;;2.28;;
24713;SDS011;12820;51.580;5.010;2023-02-26T03:39:02;5.95;;;1.48;;
24713;SDS011;12820;51.580;5.010;2023-02-26T03:49:41;10.43;;;1.60;;
24713;SDS011;12820;51.580;5.010;2023-02-26T03:54:54;10.57;;;1.45;;
24713;SDS011;12820;51.580;5.010;2023-02-26T04:00:28;9.35;;;1.42;;
24713;SDS011;12820;51.580;5.010;2023-02-26T04:05:34;10.48;;;1.27;;
24713;SDS011;12820;51.580;5.010;2023-02-26T04:10:41;10.13;;;1.20;;
24713;SDS011;12820;51.580;5.010;2023-02-26T04:15:47;4.93;;;1.00;;
24713;SDS011;12820;51.580;5.010;2023-02-26T04:20:49;7.13;;;1.65;;
24713;SDS011;12820;51.580;5.010;2023-02-26T04:25:51;4.35;;;1.00;;
24713;SDS011;12820;51.580;5.010;2023-02-26T04:30:53;11.43;;;1.27;;
24713;SDS011;12820;51.580;5.010;2023-02-26T04:35:56;7.95;;;1.25;;
24713;SDS011;12820;51.580;5.010;2023-02-26T04:40:58;9.23;;;1.17;;
24713;SDS011;12820;51.580;5.010;2023-02-26T04:46:00;7.25;;;1.30;;
24713;SDS011;12820;51.580;5.010;2023-02-26T04:51:04;8.15;;;1.30;;
24713;SDS011;12820;51.580;5.010;2023-02-26T04:56:07;4.63;;;1.00;;
24713;SDS011;12820;51.580;5.010;2023-02-26T05:01:10;10.90;;;1.23;;
24713;SDS011;12820;51.580;5.010;2023-02-26T05:06:14;7.85;;;1.17;;
24713;SDS011;12820;51.580;5.010;2023-02-26T05:11:16;5.38;;;1.10;;
24713;SDS011;12820;51.580;5.010;2023-02-26T05:16:18;5.03;;;1.20;;
24713;SDS011;12820;51.580;5.010;2023-02-26T05:21:21;14.02;;;1.25;;
24713;SDS011;12820;51.580;5.010;2023-02-26T05:26:27;8.30;;;1.80;;
24713;SDS011;12820;51.580;5.010;2023-02-26T05:31:29;11.18;;;1.65;;
24713;SDS011;12820;51.580;5.010;2023-02-26T05:36:31;6.85;;;1.20;;
24713;SDS011;12820;51.580;5.010;2023-02-26T05:41:34;7.07;;;1.30;;
24713;SDS011;12820;51.580;5.010;2023-02-26T05:46:36;5.10;;;1.30;;
24713;SDS011;12820;51.580;5.010;2023-02-26T05:51:38;3.75;;;0.88;;
24713;SDS011;12820;51.580;5.010;2023-02-26T05:56:40;5.15;;;1.17;;
24713;SDS011;12820;51.580;5.010;2023-02-26T06:01:42;6.22;;;1.25;;
24713;SDS011;12820;51.580;5.010;2023-02-26T06:06:44;7.32;;;0.80;;
24713;SDS011;12820;51.580;5.010;2023-02-26T06:11:47;7.32;;;1.30;;
24713;SDS011;12820;51.580;5.010;2023-02-26T06:16:49;5.30;;;1.15;;
24713;SDS011;12820;51.580;5.010;2023-02-26T06:21:51;3.03;;;1.08;;
24713;SDS011;12820;51.580;5.010;2023-02-26T06:26:53;7.65;;;1.80;;
24713;SDS011;12820;51.580;5.010;2023-02-26T06:31:55;7.03;;;1.05;;
24713;SDS011;12820;51.580;5.010;2023-02-26T06:36:57;6.70;;;1.13;;
24713;SDS011;12820;51.580;5.010;2023-02-26T06:41:59;4.70;;;1.30;;
24713;SDS011;12820;51.580;5.010;2023-02-26T06:47:01;9.50;;;1.23;;
24713;SDS011;12820;51.580;5.010;2023-02-26T06:52:04;6.53;;;1.13;;
24713;SDS011;12820;51.580;5.010;2023-02-26T06:57:06;4.38;;;1.13;;
24713;SDS011;12820;51.580;5.010;2023-02-26T07:02:11;5.47;;;1.00;;
24713;SDS011;12820;51.580;5.010;2023-02-26T07:07:17;10.10;;;1.20;;
24713;SDS011;12820;51.580;5.010;2023-02-26T07:12:20;4.20;;;0.90;;
24713;SDS011;12820;51.580;5.010;2023-02-26T07:17:22;7.38;;;1.30;;
24713;SDS011;12820;51.580;5.010;2023-02-26T07:22:24;7.78;;;1.27;;
24713;SDS011;12820;51.580;5.010;2023-02-26T07:27:26;5.35;;;1.00;;
24713;SDS011;12820;51.580;5.010;2023-02-26T07:32:30;5.38;;;0.95;;
24713;SDS011;12820;51.580;5.010;2023-02-26T07:37:33;5.60;;;1.08;;
24713;SDS011;12820;51.580;5.010;2023-02-26T07:42:35;5.35;;;1.00;;
24713;SDS011;12820;51.580;5.010;2023-02-26T07:47:37;5.68;;;0.95;;
24713;SDS011;12820;51.580;5.010;2023-02-26T07:52:39;9.20;;;1.38;;
24713;SDS011;12820;51.580;5.010;2023-02-26T07:57:42;3.80;;;0.80;;
24713;SDS011;12820;51.580;5.010;2023-02-26T08:02:44;5.53;;;1.17;;
24713;SDS011;12820;51.580;5.010;2023-02-26T08:07:46;3.50;;;0.80;;
24713;SDS011;12820;51.580;5.010;2023-02-26T08:12:48;8.65;;;1.38;;
24713;SDS011;12820;51.580;5.010;2023-02-26T08:17:51;7.65;;;1.52;;
24713;SDS011;12820;51.580;5.010;2023-02-26T08:22:54;4.40;;;1.20;;
24713;SDS011;12820;51.580;5.010;2023-02-26T08:27:56;8.25;;;1.38;;
24713;SDS011;12820;51.580;5.010;2023-02-26T08:32:59;7.45;;;1.10;;
24713;SDS011;12820;51.580;5.010;2023-02-26T08:38:01;6.07;;;1.25;;
24713;SDS011;12820;51.580;5.010;2023-02-26T08:43:03;5.88;;;1.35;;
24713;SDS011;12820;51.580;5.010;2023-02-26T08:48:05;7.15;;;1.27;;
24713;SDS011;12820;51.580;5.010;2023-02-26T08:53:10;4.85;;;1.05;;
24713;SDS011;12820;51.580;5.010;2023-02-26T08:58:12;6.13;;;1.40;;
24713;SDS011;12820;51.580;5.010;2023-02-26T09:03:14;9.90;;;1.75;;
24713;SDS011;12820;51.580;5.010;2023-02-26T09:08:17;3.67;;;0.82;;
24713;SDS011;12820;51.580;5.010;2023-02-26T09:13:21;5.68;;;0.88;;
24713;SDS011;12820;51.580;5.010;2023-02-26T09:18:23;4.53;;;1.00;;
24713;SDS011;12820;51.580;5.010;2023-02-26T09:23:25;3.80;;;0.90;;
24713;SDS011;12820;51.580;5.010;2023-02-26T09:28:28;7.15;;;1.30;;
24713;SDS011;12820;51.580;5.010;2023-02-26T09:33:30;8.95;;;0.82;;
24713;SDS011;12820;51.580;5.010;2023-02-26T09:38:32;6.38;;;0.98;;
24713;SDS011;12820;51.580;5.010;2023-02-26T09:49:23;7.13;;;1.08;;
24713;SDS011;12820;51.580;5.010;2023-02-26T09:54:29;5.00;;;1.52;;
24713;SDS011;12820;51.580;5.010;2023-02-26T09:59:34;3.05;;;0.93;;
24713;SDS011;12820;51.580;5.010;2023-02-26T10:04:50;4.32;;;1.05;;
24713;SDS011;12820;51.580;5.010;2023-02-26T10:10:02;4.90;;;0.77;;
24713;SDS011;12820;51.580;5.010;2023-02-26T10:36:31;4.60;;;0.80;;
24713;SDS011;12820;51.580;5.010;2023-02-26T10:41:39;5.50;;;0.90;;
24713;SDS011;12820;51.580;5.010;2023-02-26T10:51:53;5.72;;;0.93;;
24713;SDS011;12820;51.580;5.010;2023-02-26T10:56:58;3.03;;;0.77;;
24713;SDS011;12820;51.580;5.010;2023-02-26T11:02:00;4.03;;;0.40;;
24713;SDS011;12820;51.580;5.010;2023-02-26T11:07:02;2.90;;;0.70;;
24713;SDS011;12820;51.580;5.010;2023-02-26T11:17:22;2.92;;;0.80;;
24713;SDS011;12820;51.580;5.010;2023-02-26T11:22:29;5.93;;;0.80;;
24713;SDS011;12820;51.580;5.010;2023-02-26T11:27:36;1.55;;;0.50;;
24713;SDS011;12820;51.580;5.010;2023-02-26T11:32:39;5.80;;;0.68;;
24713;SDS011;12820;51.580;5.010;2023-02-26T11:37:44;2.47;;;0.70;;
24713;SDS011;12820;51.580;5.010;2023-02-26T11:42:51;3.40;;;0.70;;
24713;SDS011;12820;51.580;5.010;2023-02-26T11:47:59;3.20;;;0.77;;
24713;SDS011;12820;51.580;5.010;2023-02-26T11:53:09;5.13;;;1.08;;
24713;SDS011;12820;51.580;5.010;2023-02-26T11:58:21;3.75;;;0.85;;
24713;SDS011;12820;51.580;5.010;2023-02-26T12:03:28;3.20;;;1.00;;
24713;SDS011;12820;51.580;5.010;2023-02-26T12:08:36;4.38;;;0.80;;
24713;SDS011;12820;51.580;5.010;2023-02-26T12:13:51;5.35;;;0.90;;
24713;SDS011;12820;51.580;5.010;2023-02-26T12:19:28;5.40;;;0.88;;
24713;SDS011;12820;51.580;5.010;2023-02-26T12:40:49;3.40;;;0.70;;
24713;SDS011;12820;51.580;5.010;2023-02-26T12:46:09;3.67;;;0.90;;
24713;SDS011;12820;51.580;5.010;2023-02-26T13:22:50;2.35;;;0.68;;
24713;SDS011;12820;51.580;5.010;2023-02-26T13:27:56;3.25;;;0.90;;
24713;SDS011;12820;51.580;5.010;2023-02-26T13:33:01;3.05;;;0.80;;
24713;SDS011;12820;51.580;5.010;2023-02-26T13:38:18;3.95;;;0.85;;
24713;SDS011;12820;51.580;5.010;2023-02-26T13:48:51;2.63;;;0.63;;
24713;SDS011;12820;51.580;5.010;2023-02-26T13:54:00;4.75;;;0.98;;
24713;SDS011;12820;51.580;5.010;2023-02-26T14:14:43;4.18;;;0.68;;
24713;SDS011;12820;51.580;5.010;2023-02-26T14:25:31;2.55;;;0.60;;
24713;SDS011;12820;51.580;5.010;2023-02-26T14:30:35;5.18;;;0.90;;
24713;SDS011;12820;51.580;5.010;2023-02-26T14:35:48;2.85;;;0.70;;
24713;SDS011;12820;51.580;5.010;2023-02-26T14:40:57;3.22;;;0.70;;
24713;SDS011;12820;51.580;5.010;2023-02-26T14:46:06;3.47;;;0.80;;
24713;SDS011;12820;51.580;5.010;2023-02-26T14:51:23;2.50;;;0.60;;
24713;SDS011;12820;51.580;5.010;2023-02-26T15:02:04;2.80;;;0.60;;
24713;SDS011;12820;51.580;5.010;2023-02-26T15:07:20;2.38;;;0.60;;
24713;SDS011;12820;51.580;5.010;2023-02-26T15:23:15;1.90;;;0.57;;
24713;SDS011;12820;51.580;5.010;2023-02-26T15:28:29;3.47;;;0.70;;
24713;SDS011;12820;51.580;5.010;2023-02-26T15:33:33;2.38;;;0.60;;
24713;SDS011;12820;51.580;5.010;2023-02-26T15:38:40;3.03;;;0.70;;
24713;SDS011;12820;51.580;5.010;2023-02-26T15:43:46;3.20;;;0.40;;
24713;SDS011;12820;51.580;5.010;2023-02-26T15:48:52;2.53;;;0.60;;
24713;SDS011;12820;51.580;5.010;2023-02-26T15:54:00;2.85;;;0.93;;
24713;SDS011;12820;51.580;5.010;2023-02-26T15:59:11;2.85;;;0.93;;
24713;SDS011;12820;51.580;5.010;2023-02-26T16:14:30;4.68;;;1.40;;
24713;SDS011;12820;51.580;5.010;2023-02-26T16:19:40;2.72;;;0.80;;
24713;SDS011;12820;51.580;5.010;2023-02-26T16:24:45;5.22;;;0.95;;
24713;SDS011;12820;51.580;5.010;2023-02-26T16:29:52;4.57;;;0.73;;
24713;SDS011;12820;51.580;5.010;2023-02-26T16:35:07;3.92;;;1.00;;
24713;SDS011;12820;51.580;5.010;2023-02-26T16:40:21;3.03;;;0.90;;
24713;SDS011;12820;51.580;5.010;2023-02-26T16:50:37;5.00;;;1.10;;
24713;SDS011;12820;51.580;5.010;2023-02-26T16:55:39;2.92;;;0.80;;
24713;SDS011;12820;51.580;5.010;2023-02-26T17:00:44;4.20;;;0.95;;
24713;SDS011;12820;51.580;5.010;2023-02-26T17:06:01;2.85;;;0.85;;
24713;SDS011;12820;51.580;5.010;2023-02-26T17:11:08;4.22;;;1.40;;
24713;SDS011;12820;51.580;5.010;2023-02-26T17:16:18;5.13;;;1.60;;
24713;SDS011;12820;51.580;5.010;2023-02-26T17:21:23;7.95;;;1.20;;
24713;SDS011;12820;51.580;5.010;2023-02-26T17:26:26;5.63;;;1.77;;
24713;SDS011;12820;51.580;5.010;2023-02-26T17:31:28;6.40;;;1.48;;
24713;SDS011;12820;51.580;5.010;2023-02-26T17:36:30;8.00;;;2.70;;
24713;SDS011;12820;51.580;5.010;2023-02-26T17:41:32;3.63;;;1.35;;
24713;SDS011;12820;51.580;5.010;2023-02-26T17:46:35;4.28;;;1.00;;
24713;SDS011;12820;51.580;5.010;2023-02-26T17:51:37;6.50;;;2.05;;
24713;SDS011;12820;51.580;5.010;2023-02-26T17:56:39;10.25;;;2.53;;
24713;SDS011;12820;51.580;5.010;2023-02-26T18:01:43;6.93;;;2.10;;
24713;SDS011;12820;51.580;5.010;2023-02-26T18:06:45;5.55;;;1.83;;
24713;SDS011;12820;51.580;5.010;2023-02-26T18:11:47;4.82;;;1.10;;
24713;SDS011;12820;51.580;5.010;2023-02-26T18:16:49;5.63;;;1.50;;
24713;SDS011;12820;51.580;5.010;2023-02-26T18:21:52;5.57;;;1.75;;
24713;SDS011;12820;51.580;5.010;2023-02-26T18:26:54;6.80;;;2.25;;
24713;SDS011;12820;51.580;5.010;2023-02-26T18:31:56;5.10;;;1.50;;
24713;SDS011;12820;51.580;5.010;2023-02-26T18:37:01;7.95;;;2.15;;
24713;SDS011;12820;51.580;5.010;2023-02-26T18:42:05;7.55;;;1.63;;
24713;SDS011;12820;51.580;5.010;2023-02-26T18:47:07;6.57;;;1.90;;
24713;SDS011;12820;51.580;5.010;2023-02-26T18:52:11;5.55;;;1.40;;
24713;SDS011;12820;51.580;5.010;2023-02-26T18:57:13;6.72;;;1.45;;
24713;SDS011;12820;51.580;5.010;2023-02-26T19:02:16;5.72;;;1.50;;
24713;SDS011;12820;51.580;5.010;2023-02-26T19:07:18;8.15;;;1.95;;
24713;SDS011;12820;51.580;5.010;2023-02-26T19:12:20;7.47;;;1.45;;
24713;SDS011;12820;51.580;5.010;2023-02-26T19:17:23;6.47;;;1.52;;
24713;SDS011;12820;51.580;5.010;2023-02-26T19:22:26;5.47;;;1.40;;
24713;SDS011;12820;51.580;5.010;2023-02-26T19:27:28;10.80;;;1.98;;
24713;SDS011;12820;51.580;5.010;2023-02-26T19:32:30;6.95;;;1.52;;
24713;SDS011;12820;51.580;5.010;2023-02-26T19:37:32;7.85;;;2.13;;
24713;SDS011;12820;51.580;5.010;2023-02-26T19:42:34;8.73;;;2.53;;
24713;SDS011;12820;51.580;5.010;2023-02-26T19:47:37;10.75;;;2.13;;
24713;SDS011;12820;51.580;5.010;2023-02-26T19:52:39;16.40;;;2.28;;
24713;SDS011;12820;51.580;5.010;2023-02-26T19:57:41;9.20;;;1.85;;
24713;SDS011;12820;51.580;5.010;2023-02-26T20:02:44;6.15;;;2.00;;
24713;SDS011;12820;51.580;5.010;2023-02-26T20:07:46;8.25;;;1.70;;
24713;SDS011;12820;51.580;5.010;2023-02-26T20:12:49;5.50;;;1.42;;
24713;SDS011;12820;51.580;5.010;2023-02-26T20:17:51;7.43;;;1.90;;
24713;SDS011;12820;51.580;5.010;2023-02-26T20:22:53;4.53;;;1.42;;
24713;SDS011;12820;51.580;5.010;2023-02-26T20:27:55;5.28;;;1.38;;
24713;SDS011;12820;51.580;5.010;2023-02-26T20:32:57;9.60;;;2.00;;
24713;SDS011;12820;51.580;5.010;2023-02-26T20:37:59;5.90;;;1.80;;
24713;SDS011;12820;51.580;5.010;2023-02-26T20:43:02;12.85;;;3.22;;
24713;SDS011;12820;51.580;5.010;2023-02-26T20:48:05;10.38;;;3.20;;
24713;SDS011;12820;51.580;5.010;2023-02-26T20:53:08;9.63;;;3.00;;
24713;SDS011;12820;51.580;5.010;2023-02-26T20:58:10;8.60;;;3.60;;
24713;SDS011;12820;51.580;5.010;2023-02-26T21:03:12;7.22;;;3.03;;
24713;SDS011;12820;51.580;5.010;2023-02-26T21:08:14;6.78;;;2.33;;
24713;SDS011;12820;51.580;5.010;2023-02-26T21:13:16;7.55;;;1.95;;
24713;SDS011;12820;51.580;5.010;2023-02-26T21:18:19;7.10;;;2.20;;
24713;SDS011;12820;51.580;5.010;2023-02-26T21:23:21;7.82;;;2.08;;
24713;SDS011;12820;51.580;5.010;2023-02-26T21:28:23;15.07;;;2.88;;
24713;SDS011;12820;51.580;5.010;2023-02-26T21:33:25;9.65;;;3.00;;
24713;SDS011;12820;51.580;5.010;2023-02-26T21:38:27;8.48;;;2.63;;
24713;SDS011;12820;51.580;5.010;2023-02-26T21:43:30;11.23;;;2.33;;
24713;SDS011;12820;51.580;5.010;2023-02-26T21:48:32;15.02;;;2.80;;
24713;SDS011;12820;51.580;5.010;2023-02-26T21:53:34;11.55;;;2.47;;
24713;SDS011;12820;51.580;5.010;2023-02-26T21:58:36;7.97;;;2.42;;
24713;SDS011;12820;51.580;5.010;2023-02-26T22:03:38;9.02;;;2.40;;
24713;SDS011;12820;51.580;5.010;2023-02-26T22:08:40;9.25;;;2.70;;
24713;SDS011;12820;51.580;5.010;2023-02-26T22:13:42;10.90;;;2.60;;
24713;SDS011;12820;51.580;5.010;2023-02-26T22:18:44;9.68;;;2.28;;
24713;SDS011;12820;51.580;5.010;2023-02-26T22:23:46;7.38;;;2.58;;
24713;SDS011;12820;51.580;5.010;2023-02-26T22:28:48;9.95;;;2.58;;
24713;SDS011;12820;51.580;5.010;2023-02-26T22:33:51;6.60;;;2.00;;
24713;SDS011;12820;51.580;5.010;2023-02-26T22:38:53;7.35;;;2.10;;
24713;SDS011;12820;51.580;5.010;2023-02-26T22:43:55;7.00;;;2.25;;
24713;SDS011;12820;51.580;5.010;2023-02-26T22:48:57;6.90;;;2.08;;
24713;SDS011;12820;51.580;5.010;2023-02-26T22:54:00;10.25;;;2.25;;
24713;SDS011;12820;51.580;5.010;2023-02-26T22:59:02;7.78;;;1.85;;
24713;SDS011;12820;51.580;5.010;2023-02-26T23:04:04;5.13;;;1.73;;
24713;SDS011;12820;51.580;5.010;2023-02-26T23:09:06;11.02;;;1.63;;
24713;SDS011;12820;51.580;5.010;2023-02-26T23:14:08;10.13;;;1.80;;
24713;SDS011;12820;51.580;5.010;2023-02-26T23:19:10;7.03;;;1.40;;
24713;SDS011;12820;51.580;5.010;2023-02-26T23:24:13;6.63;;;1.73;;
24713;SDS011;12820;51.580;5.010;2023-02-26T23:29:15;10.35;;;1.63;;
24713;SDS011;12820;51.580;5.010;2023-02-26T23:34:17;7.22;;;1.75;;
24713;SDS011;12820;51.580;5.010;2023-02-26T23:39:19;5.57;;;1.52;;
24713;SDS011;12820;51.580;5.010;2023-02-26T23:44:22;4.72;;;1.42;;
24713;SDS011;12820;51.580;5.010;2023-02-26T23:49:24;7.25;;;1.60;;
24713;SDS011;12820;51.580;5.010;2023-02-26T23:54:26;5.60;;;1.65;;
24713;SDS011;12820;51.580;5.010;2023-02-26T23:59:28;6.25;;;1.58;;
